Ramallah, West Bank
Current Conditions -  °F | °C
As of 6:20 PM on Saturday 25 Oct 2014 (Local Time) from LLBG Reporting Station
Clear Clear  
Wind Chill: 77°   Ceiling: Unl
Heat Index: 79°   Visibility: 6mi
Dew Point: 63°   Wind: 6mph
Humidity: 61%   Direction: 360°N
Pressure: 29.94"   Gusts: NA
Location:  31.9°N, 35.2°E
Report Text: LLBG 251520Z 36005KT CAVOK 25/17 Q1014 NOSIG
Loading
Personal Weather Stations






























Interactive Weather Map
Tropical Storm Tracking
New forecast layout! Learn more

10-Day Weather Forecast

Advertisements
Track Severe Weather on mobile